Time;durP1;ratioP1;P1;durP2;ratioP2;P2;SDS_P1;SDS_P2;PMS_P1;PMS_P2;Temp;Humidity;BMP_temperature;BMP_pressure;BME280_temperature;BME280_humidity;BME280_pressure;Samples;Min_cycle;Max_cycle;Signal;HPM_P1;HPM_P2
2022/06/23 00:00:41;;;;;;;;;;;25.00;63.30;;;;;;5002959;28;88132;-40
2022/06/23 00:03:07;;;;;;;;;;;25.00;63.30;;;;;;5003540;28;87154;-41
2022/06/23 00:05:37;;;;;;;;;;;25.00;63.20;;;;;;5003409;28;87528;-41
2022/06/23 00:08:05;;;;;;;;;;;25.00;63.30;;;;;;5002977;28;88174;-40
2022/06/23 00:10:37;;;;;;;;;;;25.00;63.40;;;;;;5003716;28;86460;-40
2022/06/23 00:13:08;;;;;;;;;;;24.90;63.30;;;;;;5003225;28;87040;-41
2022/06/23 00:15:38;;;;;;;;;;;24.90;63.30;;;;;;5002764;28;89263;-40
2022/06/23 00:18:05;;;;;;;;;;;24.90;63.30;;;;;;5017606;28;88091;-41
2022/06/23 00:20:32;;;;;;;;;;;24.90;63.30;;;;;;5005562;28;88420;-41
2022/06/23 00:23:00;;;;;;;;;;;24.90;63.40;;;;;;5003099;28;87134;-41
2022/06/23 00:25:45;;;;;;;;;;;24.90;63.40;;;;;;5002930;28;87501;-40
2022/06/23 00:28:15;;;;;;;;;;;24.80;63.40;;;;;;5002701;28;87936;-40
2022/06/23 00:30:41;;;;;;;;;;;24.90;63.40;;;;;;5002759;28;87139;-41
2022/06/23 00:33:20;;;;;;;;;;;24.80;63.30;;;;;;5003242;28;87572;-41
2022/06/23 00:35:46;;;;;;;;;;;24.80;63.30;;;;;;5003090;28;87353;-40
2022/06/23 00:38:38;;;;;;;;;;;24.80;63.30;;;;;;5002930;28;87124;-41
2022/06/23 00:41:05;;;;;;;;;;;24.80;63.40;;;;;;4998800;28;87529;-41
2022/06/23 00:43:30;;;;;;;;;;;24.80;63.40;;;;;;5004463;28;89740;-41
2022/06/23 00:46:19;;;;;;;;;;;24.70;63.30;;;;;;5002900;28;88197;-41
2022/06/23 00:48:50;;;;;;;;;;;24.80;63.40;;;;;;4991310;28;88128;-41
2022/06/23 00:51:20;;;;;;;;;;;24.70;63.30;;;;;;5002294;28;87172;-41
2022/06/23 00:54:17;;;;;;;;;;;24.70;63.30;;;;;;5002578;28;87766;-41
2022/06/23 00:56:47;;;;;;;;;;;24.70;63.30;;;;;;4957672;28;88307;-41
2022/06/23 00:59:39;;;;;;;;;;;24.70;63.30;;;;;;5002134;28;87622;-40
2022/06/23 01:02:12;;;;;;;;;;;24.60;63.30;;;;;;4971015;28;87954;-41
2022/06/23 01:04:41;;;;;;;;;;;24.60;63.30;;;;;;5002153;28;87903;-41
2022/06/23 01:07:06;;;;;;;;;;;24.60;63.30;;;;;;5005572;28;87140;-41
2022/06/23 01:09:40;;;;;;;;;;;24.60;63.30;;;;;;5001620;28;88848;-41
2022/06/23 01:12:24;;;;;;;;;;;24.60;63.40;;;;;;5002481;28;87097;-41
2022/06/23 01:14:52;;;;;;;;;;;24.60;63.40;;;;;;5002647;28;87102;-40
2022/06/23 01:17:20;;;;;;;;;;;24.50;63.40;;;;;;5001990;28;88758;-40
2022/06/23 01:19:46;;;;;;;;;;;24.50;63.30;;;;;;5002406;28;88075;-40
2022/06/23 01:22:32;;;;;;;;;;;24.50;63.30;;;;;;5002372;28;87124;-41
2022/06/23 01:25:16;;;;;;;;;;;24.50;63.30;;;;;;4959893;28;87673;-40
2022/06/23 01:27:56;;;;;;;;;;;24.50;63.40;;;;;;5002980;28;86444;-40
2022/06/23 01:30:22;;;;;;;;;;;24.50;63.40;;;;;;5005174;28;88136;-40
2022/06/23 01:32:55;;;;;;;;;;;24.50;63.40;;;;;;5002191;28;87054;-41
2022/06/23 01:35:33;;;;;;;;;;;24.50;63.30;;;;;;5001500;28;87960;-40
2022/06/23 01:38:14;;;;;;;;;;;24.40;63.30;;;;;;5001740;28;88199;-41
2022/06/23 01:41:06;;;;;;;;;;;24.40;63.30;;;;;;5002053;28;87152;-41
2022/06/23 01:43:35;;;;;;;;;;;24.40;63.30;;;;;;4997749;28;87231;-40
2022/06/23 01:46:05;;;;;;;;;;;24.30;63.40;;;;;;5001672;28;88181;-41
2022/06/23 01:48:52;;;;;;;;;;;24.30;63.30;;;;;;5001922;28;87115;-40
2022/06/23 01:51:22;;;;;;;;;;;24.40;63.20;;;;;;5004182;28;87695;-41
2022/06/23 01:53:49;;;;;;;;;;;24.30;63.20;;;;;;5002147;28;86459;-41
2022/06/23 01:56:14;;;;;;;;;;;24.40;63.20;;;;;;5002030;28;87013;-41
2022/06/23 01:58:47;;;;;;;;;;;24.30;63.10;;;;;;5001410;28;88057;-40
2022/06/23 02:01:17;;;;;;;;;;;24.30;63.10;;;;;;5001434;28;87968;-40
2022/06/23 02:03:43;;;;;;;;;;;24.30;63.10;;;;;;5001737;28;89464;-41
2022/06/23 02:06:35;;;;;;;;;;;24.30;63.20;;;;;;5001626;28;88265;-41
2022/06/23 02:09:15;;;;;;;;;;;24.30;63.10;;;;;;4970020;28;87174;-41
2022/06/23 02:11:49;;;;;;;;;;;24.30;63.10;;;;;;5001999;28;87181;-40
2022/06/23 02:14:26;;;;;;;;;;;24.30;63.10;;;;;;5004377;28;87197;-41
2022/06/23 02:17:08;;;;;;;;;;;24.20;63.10;;;;;;5002264;28;87426;-40
2022/06/23 02:19:37;;;;;;;;;;;24.20;63.10;;;;;;5004960;28;88052;-41
2022/06/23 02:22:02;;;;;;;;;;;24.20;63.10;;;;;;5005012;28;87116;-40
2022/06/23 02:24:31;;;;;;;;;;;24.20;63.10;;;;;;5005121;28;87383;-41
2022/06/23 02:27:11;;;;;;;;;;;24.20;63.10;;;;;;5004046;28;89133;-41
2022/06/23 02:29:46;;;;;;;;;;;24.20;63.00;;;;;;5004752;28;86975;-40
2022/06/23 02:32:34;;;;;;;;;;;24.20;62.90;;;;;;5004698;28;88760;-40
2022/06/23 02:35:15;;;;;;;;;;;24.20;63.60;;;;;;4966510;28;88163;-41
2022/06/23 02:37:53;;;;;;;;;;;24.20;63.10;;;;;;5007941;28;87013;-40
2022/06/23 02:40:24;;;;;;;;;;;24.10;63.10;;;;;;5004171;28;87946;-41
2022/06/23 02:42:52;;;;;;;;;;;24.10;63.10;;;;;;5004661;28;87051;-40
2022/06/23 02:45:21;;;;;;;;;;;24.10;63.10;;;;;;5005074;28;86690;-40
2022/06/23 02:48:14;;;;;;;;;;;24.10;63.00;;;;;;5004474;28;87927;-40
2022/06/23 02:50:50;;;;;;;;;;;24.10;63.10;;;;;;5004257;28;87047;-39
2022/06/23 02:53:15;;;;;;;;;;;24.00;63.10;;;;;;5004168;28;87940;-40
2022/06/23 02:55:44;;;;;;;;;;;24.00;63.10;;;;;;5004185;28;87052;-40
2022/06/23 02:58:27;;;;;;;;;;;24.00;63.00;;;;;;5004126;28;87140;-40
2022/06/23 03:01:00;;;;;;;;;;;24.00;63.10;;;;;;5022267;28;90678;-40
2022/06/23 03:03:38;;;;;;;;;;;23.90;63.00;;;;;;5003990;28;87538;-41
2022/06/23 03:06:24;;;;;;;;;;;23.90;63.10;;;;;;5004146;28;88792;-40
2022/06/23 03:09:10;;;;;;;;;;;23.90;63.00;;;;;;5004183;28;87922;-40
2022/06/23 03:11:53;;;;;;;;;;;23.90;63.10;;;;;;5004652;28;86763;-41
2022/06/23 03:14:45;;;;;;;;;;;23.90;63.10;;;;;;5004189;28;88462;-40
2022/06/23 03:17:29;;;;;;;;;;;23.90;63.10;;;;;;4999551;28;88001;-41
2022/06/23 03:19:59;;;;;;;;;;;23.80;63.10;;;;;;5003162;28;88107;-40
2022/06/23 03:22:34;;;;;;;;;;;23.80;63.10;;;;;;5003892;28;88589;-40
2022/06/23 03:24:59;;;;;;;;;;;23.70;63.20;;;;;;5006754;28;88102;-40
2022/06/23 03:27:28;;;;;;;;;;;23.80;63.20;;;;;;5003879;28;88793;-42
2022/06/23 03:30:13;;;;;;;;;;;23.80;63.10;;;;;;5002161;28;89670;-40
2022/06/23 03:32:45;;;;;;;;;;;23.80;63.10;;;;;;5003993;28;87093;-42
2022/06/23 03:35:15;;;;;;;;;;;23.80;63.00;;;;;;5003846;28;87359;-40
2022/06/23 03:37:43;;;;;;;;;;;23.80;63.00;;;;;;5004005;28;87291;-40
2022/06/23 03:43:31;;;;;;;;;;;23.70;63.00;;;;;;4996336;28;87047;-41
2022/06/23 03:46:16;;;;;;;;;;;23.70;63.10;;;;;;5003084;28;88286;-40
2022/06/23 03:48:46;;;;;;;;;;;23.70;63.00;;;;;;5005905;28;86992;-41
2022/06/23 03:51:32;;;;;;;;;;;23.70;63.10;;;;;;5002742;28;88230;-42
2022/06/23 03:54:01;;;;;;;;;;;23.60;63.10;;;;;;5003703;28;87004;-40
2022/06/23 03:56:30;;;;;;;;;;;23.60;63.10;;;;;;5003327;28;87783;-41
2022/06/23 03:59:02;;;;;;;;;;;23.60;63.00;;;;;;5002868;28;89270;-40
2022/06/23 04:01:35;;;;;;;;;;;23.60;63.40;;;;;;5003322;28;87027;-41
2022/06/23 04:04:04;;;;;;;;;;;23.60;63.10;;;;;;5003726;28;87521;-43
2022/06/23 04:06:38;;;;;;;;;;;23.60;63.10;;;;;;5003001;28;88551;-40
2022/06/23 04:09:13;;;;;;;;;;;23.60;63.00;;;;;;5006275;28;87087;-40
2022/06/23 04:11:45;;;;;;;;;;;23.60;63.10;;;;;;5002298;28;89071;-39
2022/06/23 04:14:29;;;;;;;;;;;23.60;63.10;;;;;;5002883;28;87222;-40
2022/06/23 04:17:15;;;;;;;;;;;23.50;63.00;;;;;;5003223;28;87567;-40
2022/06/23 04:19:43;;;;;;;;;;;23.50;63.20;;;;;;5002382;28;88272;-40
2022/06/23 04:22:18;;;;;;;;;;;23.50;63.20;;;;;;5003022;28;86901;-42
2022/06/23 04:24:45;;;;;;;;;;;23.50;63.20;;;;;;5002745;28;87810;-40
2022/06/23 04:27:16;;;;;;;;;;;23.50;63.10;;;;;;5002540;28;89631;-40
2022/06/23 04:29:42;;;;;;;;;;;23.50;63.10;;;;;;5003421;28;86368;-40
2022/06/23 04:32:13;;;;;;;;;;;23.50;63.10;;;;;;5005473;28;87466;-40
2022/06/23 04:34:46;;;;;;;;;;;23.40;63.10;;;;;;5002800;28;87274;-40
2022/06/23 04:37:44;;;;;;;;;;;23.50;63.10;;;;;;5002081;28;87952;-40
2022/06/23 04:40:12;;;;;;;;;;;23.50;63.00;;;;;;4957233;28;87191;-40
2022/06/23 04:42:43;;;;;;;;;;;23.50;63.00;;;;;;5002746;28;87495;-41
2022/06/23 04:45:24;;;;;;;;;;;23.40;62.90;;;;;;5003086;28;87556;-41
2022/06/23 04:47:52;;;;;;;;;;;23.50;63.00;;;;;;5002515;28;89909;-40
2022/06/23 04:50:35;;;;;;;;;;;23.40;63.00;;;;;;5001914;28;87190;-40
2022/06/23 04:53:01;;;;;;;;;;;23.40;63.00;;;;;;5002868;28;88008;-41
2022/06/23 04:55:29;;;;;;;;;;;23.40;63.00;;;;;;5005559;28;89305;-40
2022/06/23 04:58:04;;;;;;;;;;;23.40;63.00;;;;;;5002584;28;87323;-41
2022/06/23 05:00:37;;;;;;;;;;;23.40;63.10;;;;;;5002043;28;88448;-40
2022/06/23 05:03:06;;;;;;;;;;;23.40;63.10;;;;;;5001995;28;88010;-40
2022/06/23 05:05:34;;;;;;;;;;;23.40;63.20;;;;;;5002541;28;88408;-40
2022/06/23 05:08:02;;;;;;;;;;;23.40;63.10;;;;;;5002107;28;88373;-41
2022/06/23 05:10:33;;;;;;;;;;;23.40;63.10;;;;;;5002402;28;87130;-41
2022/06/23 05:13:05;;;;;;;;;;;23.40;63.90;;;;;;5002190;28;87582;-41
2022/06/23 05:15:42;;;;;;;;;;;23.40;63.30;;;;;;5001984;28;88461;-40
2022/06/23 05:18:17;;;;;;;;;;;23.30;63.40;;;;;;5005563;28;86948;-41
2022/06/23 05:20:52;;;;;;;;;;;23.40;63.50;;;;;;5002595;28;87284;-40
2022/06/23 05:23:20;;;;;;;;;;;23.40;63.50;;;;;;5002199;28;87221;-41
2022/06/23 05:25:46;;;;;;;;;;;23.40;63.40;;;;;;5002245;28;87429;-40
2022/06/23 05:28:16;;;;;;;;;;;23.40;63.30;;;;;;5001354;28;89067;-40
2022/06/23 05:30:47;;;;;;;;;;;23.40;63.40;;;;;;5002267;28;87096;-40
2022/06/23 05:33:16;;;;;;;;;;;23.40;63.30;;;;;;5002070;28;88832;-40
2022/06/23 05:35:44;;;;;;;;;;;23.40;63.40;;;;;;5001730;28;88246;-40
2022/06/23 05:38:30;;;;;;;;;;;23.40;63.40;;;;;;5001980;28;87210;-40
2022/06/23 05:54:51;;;;;;;;;;;23.40;62.90;;;;;;5044747;28;80159;-41
2022/06/23 05:57:27;;;;;;;;;;;23.20;63.70;;;;;;5043976;27;80185;-41
2022/06/23 07:18:40;;;;;;;;;;;22.20;65.90;;;;;;5044877;28;80127;-41
2022/06/23 07:21:17;;;;;;;;;;;22.40;66.00;;;;;;5043827;28;80215;-41
2022/06/23 07:23:49;;;;;;;;;;;22.40;65.80;;;;;;5043581;27;82052;-42
2022/06/23 07:26:33;;;;;;;;;;;22.50;65.70;;;;;;5043644;27;80275;-41
2022/06/23 07:29:02;;;;;;;;;;;22.50;65.50;;;;;;5043777;28;80319;-41
2022/06/23 07:31:30;;;;;;;;;;;22.60;65.30;;;;;;5043772;27;80628;-42
2022/06/23 07:33:59;;;;;;;;;;;22.60;65.20;;;;;;5043479;27;81494;-42
2022/06/23 07:36:33;;;;;;;;;;;22.60;65.10;;;;;;5043660;27;80301;-42
2022/06/23 07:39:02;;;;;;;;;;;22.60;65.00;;;;;;5045962;27;80761;-42
2022/06/23 07:41:32;;;;;;;;;;;22.60;65.20;;;;;;5043535;28;80685;-42
2022/06/23 07:43:57;;;;;;;;;;;22.60;65.20;;;;;;5043421;28;81339;-41
2022/06/23 07:46:23;;;;;;;;;;;22.50;65.20;;;;;;5043264;28;81243;-42
2022/06/23 07:48:49;;;;;;;;;;;22.60;65.20;;;;;;5043077;28;81560;-41
2022/06/23 07:51:15;;;;;;;;;;;22.60;65.20;;;;;;5043436;28;80224;-42
2022/06/23 07:53:42;;;;;;;;;;;22.60;65.10;;;;;;5043165;27;81200;-42
2022/06/23 07:56:11;;;;;;;;;;;22.60;65.20;;;;;;5043366;28;80302;-42
2022/06/23 07:58:42;;;;;;;;;;;22.60;65.20;;;;;;5043082;27;82250;-42
2022/06/23 08:01:14;;;;;;;;;;;22.60;65.10;;;;;;5045636;27;82768;-42
2022/06/23 08:03:58;;;;;;;;;;;22.70;65.20;;;;;;5041716;28;80156;-42
2022/06/23 08:06:24;;;;;;;;;;;22.60;65.40;;;;;;5042485;28;81307;-42
2022/06/23 08:08:54;;;;;;;;;;;22.70;65.50;;;;;;5042807;28;80437;-41
2022/06/23 08:14:09;;;;;;;;;;;22.70;65.50;;;;;;5042929;28;80451;-42
2022/06/23 08:16:50;;;;;;;;;;;22.70;65.50;;;;;;5042561;28;80483;-42
2022/06/23 08:19:23;;;;;;;;;;;22.80;65.70;;;;;;5031431;28;80657;-41
2022/06/23 08:21:51;;;;;;;;;;;22.80;65.60;;;;;;5029105;28;83072;-40
2022/06/23 08:24:18;;;;;;;;;;;22.80;65.70;;;;;;5031678;28;80404;-42
2022/06/23 08:26:48;;;;;;;;;;;22.80;65.90;;;;;;5029124;28;81755;-41
2022/06/23 08:29:16;;;;;;;;;;;22.80;66.00;;;;;;5029299;28;80693;-42
2022/06/23 08:31:42;;;;;;;;;;;22.80;66.10;;;;;;5029583;28;80832;-41
2022/06/23 08:34:08;;;;;;;;;;;22.70;66.10;;;;;;5029097;28;81512;-41
2022/06/23 08:36:39;;;;;;;;;;;22.80;66.10;;;;;;5029210;28;80241;-42
2022/06/23 08:39:08;;;;;;;;;;;22.80;66.10;;;;;;5029042;28;80673;-42
2022/06/23 08:41:33;;;;;;;;;;;22.80;66.20;;;;;;5029003;28;81053;-42
2022/06/23 08:44:09;;;;;;;;;;;22.80;66.20;;;;;;5029240;28;80374;-41
2022/06/23 08:46:44;;;;;;;;;;;22.80;66.20;;;;;;5031753;28;80380;-42
2022/06/23 08:49:22;;;;;;;;;;;22.80;66.20;;;;;;5028853;28;80368;-41
2022/06/23 08:51:57;;;;;;;;;;;22.80;66.20;;;;;;5029006;28;80836;-41
2022/06/23 08:54:41;;;;;;;;;;;22.80;66.20;;;;;;5028969;28;81426;-42
2022/06/23 08:57:18;;;;;;;;;;;22.80;66.30;;;;;;5028935;28;80484;-42
2022/06/23 08:59:57;;;;;;;;;;;22.80;66.30;;;;;;5028726;28;80890;-41
2022/06/23 09:02:30;;;;;;;;;;;22.80;66.50;;;;;;5028767;28;81238;-40
2022/06/23 09:04:59;;;;;;;;;;;22.80;66.30;;;;;;5028519;28;80420;-42
2022/06/23 09:07:40;;;;;;;;;;;22.80;66.30;;;;;;5028330;28;80759;-42
2022/06/23 09:10:17;;;;;;;;;;;22.90;66.30;;;;;;5031471;28;81248;-41
2022/06/23 09:12:48;;;;;;;;;;;22.80;66.20;;;;;;5028624;28;80803;-42
2022/06/23 09:15:26;;;;;;;;;;;22.80;66.20;;;;;;5028196;28;81846;-41
2022/06/23 09:18:04;;;;;;;;;;;22.80;66.20;;;;;;5027988;28;80290;-41
2022/06/23 09:20:35;;;;;;;;;;;22.80;66.20;;;;;;5028596;28;81696;-41
2022/06/23 09:23:01;;;;;;;;;;;22.90;66.20;;;;;;5028436;28;81407;-41
2022/06/23 09:25:45;;;;;;;;;;;22.90;66.20;;;;;;5028363;28;80286;-41
2022/06/23 09:28:15;;;;;;;;;;;22.80;66.20;;;;;;5028292;28;80321;-41
2022/06/23 09:30:50;;;;;;;;;;;22.80;66.20;;;;;;5027073;28;82965;-41
2022/06/23 09:33:34;;;;;;;;;;;22.80;66.20;;;;;;5030857;28;80064;-44
2022/06/23 09:36:09;;;;;;;;;;;22.80;66.20;;;;;;5026579;28;82770;-41
2022/06/23 09:38:53;;;;;;;;;;;22.80;66.20;;;;;;5028359;28;80364;-41
2022/06/23 09:41:36;;;;;;;;;;;22.80;66.40;;;;;;5028432;28;80844;-41
2022/06/23 09:44:02;;;;;;;;;;;22.80;66.40;;;;;;5028175;28;81115;-42
2022/06/23 09:46:43;;;;;;;;;;;22.80;66.40;;;;;;5028085;28;81884;-40
2022/06/23 09:49:27;;;;;;;;;;;22.80;66.40;;;;;;5028194;28;80730;-41
2022/06/23 09:51:52;;;;;;;;;;;22.80;66.30;;;;;;5027859;28;80305;-41
2022/06/23 09:54:30;;;;;;;;;;;22.80;66.20;;;;;;5030821;28;80642;-41
2022/06/23 09:56:59;;;;;;;;;;;22.80;66.20;;;;;;5028051;28;81266;-41
2022/06/23 09:59:27;;;;;;;;;;;22.80;66.20;;;;;;5027929;28;80385;-41
2022/06/23 10:01:58;;;;;;;;;;;22.90;66.20;;;;;;5028064;28;80305;-41
2022/06/23 10:04:30;;;;;;;;;;;22.90;66.20;;;;;;5027956;28;81449;-40
2022/06/23 10:07:10;;;;;;;;;;;22.90;66.10;;;;;;5027423;28;80381;-41
2022/06/23 10:09:39;;;;;;;;;;;22.90;66.20;;;;;;5027706;28;82294;-40
2022/06/23 10:12:24;;;;;;;;;;;22.90;66.20;;;;;;5027918;28;81437;-40
2022/06/23 10:14:52;;;;;;;;;;;22.90;66.30;;;;;;5027664;28;80314;-41
2022/06/23 10:17:21;;;;;;;;;;;22.90;66.20;;;;;;5029537;28;80971;-41
2022/06/23 10:20:08;;;;;;;;;;;22.90;66.10;;;;;;5027649;28;80515;-40
2022/06/23 10:22:53;;;;;;;;;;;22.90;66.10;;;;;;5027781;28;81148;-41
2022/06/23 10:25:37;;;;;;;;;;;22.90;66.20;;;;;;5027497;28;81291;-41
2022/06/23 10:28:29;;;;;;;;;;;23.00;66.10;;;;;;5027626;28;80420;-40
2022/06/23 10:31:00;;;;;;;;;;;23.00;66.10;;;;;;5024865;28;80386;-41
2022/06/23 10:33:41;;;;;;;;;;;23.00;66.20;;;;;;5027118;28;82520;-41
2022/06/23 10:36:27;;;;;;;;;;;23.00;66.20;;;;;;5027161;28;80433;-41
2022/06/23 10:39:08;;;;;;;;;;;23.00;66.10;;;;;;5027159;28;82488;-40
2022/06/23 10:41:36;;;;;;;;;;;23.00;66.10;;;;;;5029481;28;81265;-41
2022/06/23 10:44:10;;;;;;;;;;;23.00;66.10;;;;;;5027094;28;81196;-40
2022/06/23 10:47:11;;;;;;;;;;;23.00;66.40;;;;;;5027055;28;81215;-40
2022/06/23 10:49:45;;;;;;;;;;;23.00;66.30;;;;;;4984614;28;80422;-40
2022/06/23 10:52:11;;;;;;;;;;;23.10;66.20;;;;;;5020604;28;80406;-41
2022/06/23 10:54:42;;;;;;;;;;;23.10;66.40;;;;;;5027277;28;81348;-41
2022/06/23 10:57:23;;;;;;;;;;;23.10;66.20;;;;;;5027148;28;80398;-41
2022/06/23 10:59:48;;;;;;;;;;;23.00;66.40;;;;;;5026777;28;82213;-41
2022/06/23 11:02:20;;;;;;;;;;;23.00;66.30;;;;;;5026901;28;81322;-41
2022/06/23 11:04:59;;;;;;;;;;;23.00;66.50;;;;;;5029799;28;80269;-41
2022/06/23 11:07:28;;;;;;;;;;;23.00;66.60;;;;;;5026458;28;81216;-41
2022/06/23 11:09:58;;;;;;;;;;;23.00;66.40;;;;;;5027138;28;80385;-41
2022/06/23 11:12:43;;;;;;;;;;;23.00;66.30;;;;;;5026835;28;81169;-41
2022/06/23 11:15:11;;;;;;;;;;;23.00;66.30;;;;;;5026915;28;80690;-41
2022/06/23 11:17:40;;;;;;;;;;;23.00;66.30;;;;;;5026306;28;80326;-42
2022/06/23 11:20:05;;;;;;;;;;;23.00;66.30;;;;;;5026672;28;82044;-41
2022/06/23 11:22:51;;;;;;;;;;;23.00;66.30;;;;;;5026552;28;81777;-42
2022/06/23 11:25:34;;;;;;;;;;;23.10;66.30;;;;;;5018624;28;80346;-42
2022/06/23 11:28:11;;;;;;;;;;;23.10;66.30;;;;;;5029557;28;80699;-42
2022/06/23 11:30:37;;;;;;;;;;;23.10;66.30;;;;;;5026878;28;80406;-42
2022/06/23 11:33:11;;;;;;;;;;;23.10;66.30;;;;;;5026566;28;80347;-41
2022/06/23 11:35:55;;;;;;;;;;;23.10;66.40;;;;;;5025309;28;83061;-42
2022/06/23 11:38:21;;;;;;;;;;;23.10;66.30;;;;;;5025963;28;81231;-41
2022/06/23 11:41:05;;;;;;;;;;;23.10;66.30;;;;;;5025214;28;81976;-41
2022/06/23 11:43:51;;;;;;;;;;;23.10;66.40;;;;;;5025323;28;83109;-42
2022/06/23 11:46:55;;;;;;;;;;;23.10;66.40;;;;;;5024403;28;82825;-42
2022/06/23 11:49:39;;;;;;;;;;;23.10;66.50;;;;;;4985432;28;83562;-41
2022/06/23 11:52:07;;;;;;;;;;;23.10;66.50;;;;;;4983307;28;82197;-40
2022/06/23 11:54:35;;;;;;;;;;;23.10;66.50;;;;;;5010764;28;82487;-41
2022/06/23 11:57:13;;;;;;;;;;;23.10;66.50;;;;;;5028681;28;82961;-40
2022/06/23 11:59:45;;;;;;;;;;;23.10;66.60;;;;;;5028500;28;82071;-41
2022/06/23 12:02:10;;;;;;;;;;;23.10;66.50;;;;;;5028900;28;82412;-41
2022/06/23 12:04:36;;;;;;;;;;;23.10;66.50;;;;;;5028933;28;82395;-42
2022/06/23 12:07:28;;;;;;;;;;;23.10;66.50;;;;;;5027981;28;82093;-41
2022/06/23 12:09:53;;;;;;;;;;;23.10;66.50;;;;;;5011281;28;83813;-40
2022/06/23 12:12:19;;;;;;;;;;;23.10;66.50;;;;;;5030035;28;84153;-42
2022/06/23 12:14:45;;;;;;;;;;;23.20;66.70;;;;;;5028640;28;83451;-42
2022/06/23 12:17:26;;;;;;;;;;;23.20;66.70;;;;;;5028322;28;83336;-41
2022/06/23 12:20:10;;;;;;;;;;;23.20;66.60;;;;;;5028602;28;82068;-41
2022/06/23 12:22:38;;;;;;;;;;;23.20;66.60;;;;;;5028376;28;82468;-40
2022/06/23 12:25:26;;;;;;;;;;;23.20;66.70;;;;;;5027884;28;82569;-41
2022/06/23 12:41:13;;;;;;;;;;;23.20;66.20;;;;;;5065203;27;80213;-42
2022/06/23 12:43:45;;;;;;;;;;;23.20;66.70;;;;;;5064404;27;79886;-41
2022/06/23 12:46:22;;;;;;;;;;;23.20;66.60;;;;;;5064010;27;80287;-41
2022/06/23 12:48:56;;;;;;;;;;;23.20;66.70;;;;;;5064041;27;80839;-41
2022/06/23 12:51:31;;;;;;;;;;;23.30;66.80;;;;;;5064259;27;80065;-41
2022/06/23 12:54:05;;;;;;;;;;;23.30;66.60;;;;;;5064108;27;80732;-41
2022/06/23 12:56:47;;;;;;;;;;;23.30;66.70;;;;;;5063653;27;81224;-41
2022/06/23 12:59:15;;;;;;;;;;;23.30;66.60;;;;;;5063925;27;80423;-41
2022/06/23 13:01:47;;;;;;;;;;;23.30;66.80;;;;;;5066584;27;80961;-41
2022/06/23 13:04:21;;;;;;;;;;;23.30;66.80;;;;;;5063612;27;80224;-41
2022/06/23 13:07:05;;;;;;;;;;;23.30;66.60;;;;;;5063951;27;80903;-41
2022/06/23 13:09:44;;;;;;;;;;;23.30;66.70;;;;;;5063431;27;81637;-41
2022/06/23 13:12:15;;;;;;;;;;;23.30;66.60;;;;;;5063668;27;80145;-41
2022/06/23 13:14:49;;;;;;;;;;;23.30;66.70;;;;;;5063667;27;80736;-41
2022/06/23 13:17:22;;;;;;;;;;;23.30;66.60;;;;;;5063271;27;81811;-41
2022/06/23 13:20:10;;;;;;;;;;;23.30;66.70;;;;;;5063253;27;80718;-41
2022/06/23 13:22:47;;;;;;;;;;;23.40;66.80;;;;;;5063637;27;80817;-42
2022/06/23 13:25:17;;;;;;;;;;;23.30;66.80;;;;;;5066083;27;81110;-41
2022/06/23 13:27:47;;;;;;;;;;;23.30;66.70;;;;;;5063138;27;80224;-41
2022/06/23 13:30:14;;;;;;;;;;;23.40;66.70;;;;;;5048880;27;81499;-41
2022/06/23 13:32:43;;;;;;;;;;;23.40;66.70;;;;;;5042934;27;80273;-41
2022/06/23 13:35:09;;;;;;;;;;;23.40;66.70;;;;;;5042785;27;80560;-41
2022/06/23 13:37:34;;;;;;;;;;;23.40;66.70;;;;;;5042817;28;81245;-41
2022/06/23 13:40:19;;;;;;;;;;;23.40;66.60;;;;;;5052061;27;80378;-42
2022/06/23 13:43:06;;;;;;;;;;;23.40;66.50;;;;;;5049510;28;80718;-41
2022/06/23 13:45:44;;;;;;;;;;;23.40;66.60;;;;;;5049315;28;80301;-42
2022/06/23 13:48:11;;;;;;;;;;;23.50;66.60;;;;;;5052273;28;80371;-42
2022/06/23 13:50:41;;;;;;;;;;;23.50;66.50;;;;;;5048943;28;83011;-41
2022/06/23 13:53:14;;;;;;;;;;;23.50;66.50;;;;;;5049292;28;80278;-40
2022/06/23 13:55:43;;;;;;;;;;;23.50;66.60;;;;;;5049239;28;80783;-41
2022/06/23 13:58:17;;;;;;;;;;;23.50;66.60;;;;;;5049005;28;81322;-42
2022/06/23 14:00:46;;;;;;;;;;;23.50;66.70;;;;;;5049085;28;80503;-42
2022/06/23 14:03:14;;;;;;;;;;;23.50;66.60;;;;;;5049004;28;81056;-42
2022/06/23 14:05:43;;;;;;;;;;;23.50;67.20;;;;;;5048863;28;81420;-41
2022/06/23 14:08:16;;;;;;;;;;;23.50;66.60;;;;;;5049233;28;80356;-41
2022/06/23 14:10:44;;;;;;;;;;;23.60;66.60;;;;;;5051711;28;80656;-42
2022/06/23 14:13:10;;;;;;;;;;;23.60;66.50;;;;;;5049228;28;80456;-41
2022/06/23 14:15:54;;;;;;;;;;;23.60;66.50;;;;;;5049292;28;80217;-41
2022/06/23 14:18:30;;;;;;;;;;;23.60;66.40;;;;;;5048736;28;81628;-41
2022/06/23 14:21:09;;;;;;;;;;;23.60;66.60;;;;;;5049280;28;80136;-41
2022/06/23 14:23:47;;;;;;;;;;;23.60;66.80;;;;;;5049273;28;80349;-41
2022/06/23 14:26:22;;;;;;;;;;;23.70;66.70;;;;;;5048600;28;81210;-42
2022/06/23 14:28:56;;;;;;;;;;;23.70;66.70;;;;;;5048408;28;80426;-41
2022/06/23 14:31:24;;;;;;;;;;;23.70;66.70;;;;;;5048673;28;82528;-42
2022/06/23 14:34:12;;;;;;;;;;;23.80;66.70;;;;;;5051126;28;81584;-42
2022/06/23 14:36:42;;;;;;;;;;;23.80;66.60;;;;;;5000965;28;80809;-41
2022/06/23 14:39:14;;;;;;;;;;;23.80;66.60;;;;;;5047411;28;81767;-41
2022/06/23 14:41:47;;;;;;;;;;;23.90;66.50;;;;;;5048705;28;80247;-41
2022/06/23 14:44:24;;;;;;;;;;;23.90;66.50;;;;;;5048750;28;80913;-41
2022/06/23 14:47:08;;;;;;;;;;;23.90;66.60;;;;;;5048638;28;81430;-41
2022/06/23 14:49:46;;;;;;;;;;;23.80;67.30;;;;;;5048411;28;80496;-41
2022/06/23 14:52:31;;;;;;;;;;;23.80;66.80;;;;;;5047572;27;80979;-41
2022/06/23 14:55:19;;;;;;;;;;;23.80;66.80;;;;;;5048609;28;81383;-41
2022/06/23 14:57:53;;;;;;;;;;;23.80;66.80;;;;;;5002916;28;80420;-41
2022/06/23 15:00:31;;;;;;;;;;;23.70;66.80;;;;;;5048348;28;81366;-42
2022/06/23 15:03:15;;;;;;;;;;;23.80;66.70;;;;;;5048492;28;80648;-41
2022/06/23 15:05:44;;;;;;;;;;;23.70;66.60;;;;;;5048359;28;80592;-41
2022/06/23 15:08:23;;;;;;;;;;;23.80;66.50;;;;;;5048038;28;80372;-41
2022/06/23 15:10:56;;;;;;;;;;;23.80;66.50;;;;;;5047937;28;80366;-41
2022/06/23 15:13:21;;;;;;;;;;;23.80;66.40;;;;;;5048100;28;82016;-42
2022/06/23 15:15:53;;;;;;;;;;;23.80;66.50;;;;;;5047982;28;81138;-41
2022/06/23 15:18:24;;;;;;;;;;;23.90;66.40;;;;;;5050826;28;80387;-41
2022/06/23 15:20:55;;;;;;;;;;;23.80;66.50;;;;;;5047982;28;81259;-41
2022/06/23 15:23:33;;;;;;;;;;;23.90;66.50;;;;;;5047908;28;80330;-41
2022/06/23 15:26:02;;;;;;;;;;;23.90;66.50;;;;;;5048095;28;80271;-41
2022/06/23 15:28:43;;;;;;;;;;;23.90;66.40;;;;;;5047528;28;82624;-41
2022/06/23 15:31:20;;;;;;;;;;;23.90;66.50;;;;;;5047835;28;81417;-41
2022/06/23 15:34:05;;;;;;;;;;;23.90;66.60;;;;;;5047837;28;80782;-41
2022/06/23 15:36:40;;;;;;;;;;;23.90;66.60;;;;;;5047668;28;81462;-41
2022/06/23 15:39:05;;;;;;;;;;;23.90;66.60;;;;;;5047411;28;80285;-41
2022/06/23 15:41:33;;;;;;;;;;;23.90;66.70;;;;;;5050583;28;80673;-41
2022/06/23 15:44:04;;;;;;;;;;;23.90;66.60;;;;;;5047725;28;80261;-41
2022/06/23 15:46:30;;;;;;;;;;;23.90;66.70;;;;;;5047909;28;80786;-41
2022/06/23 15:49:02;;;;;;;;;;;23.90;66.60;;;;;;5047420;28;80613;-41
2022/06/23 15:51:53;;;;;;;;;;;23.90;66.50;;;;;;5047494;28;80393;-41
2022/06/23 15:54:24;;;;;;;;;;;24.00;66.50;;;;;;5024226;28;83909;-41
2022/06/23 15:57:07;;;;;;;;;;;24.00;66.40;;;;;;5047654;28;81449;-42
2022/06/23 15:59:51;;;;;;;;;;;24.00;66.40;;;;;;5047677;28;80421;-41
2022/06/23 16:02:21;;;;;;;;;;;24.00;66.30;;;;;;5047655;28;80582;-42
2022/06/23 16:04:51;;;;;;;;;;;24.10;66.40;;;;;;5049362;27;80509;-41
2022/06/23 16:07:19;;;;;;;;;;;24.00;66.40;;;;;;5047361;28;80305;-41
2022/06/23 16:09:53;;;;;;;;;;;24.00;66.40;;;;;;5047125;28;81308;-43
2022/06/23 16:12:40;;;;;;;;;;;24.00;66.40;;;;;;5047177;28;79981;-41
2022/06/23 16:15:23;;;;;;;;;;;24.00;66.30;;;;;;5047248;28;80262;-40
2022/06/23 16:17:52;;;;;;;;;;;24.00;66.30;;;;;;5047012;28;81236;-41
2022/06/23 16:20:19;;;;;;;;;;;24.10;66.20;;;;;;5047160;28;80364;-41
2022/06/23 16:22:51;;;;;;;;;;;24.20;66.10;;;;;;5047294;28;80803;-41
2022/06/23 16:25:43;;;;;;;;;;;24.20;66.00;;;;;;5046925;28;81994;-40
2022/06/23 16:28:16;;;;;;;;;;;24.20;65.90;;;;;;5044497;28;80254;-42
2022/06/23 16:30:44;;;;;;;;;;;24.20;66.00;;;;;;5028554;28;80533;-41
2022/06/23 16:33:09;;;;;;;;;;;24.20;66.00;;;;;;5047094;28;80175;-42
2022/06/23 16:35:37;;;;;;;;;;;24.20;66.10;;;;;;5047153;28;80754;-42
2022/06/23 16:38:08;;;;;;;;;;;24.20;66.30;;;;;;5046664;28;81564;-41
2022/06/23 16:40:43;;;;;;;;;;;24.10;66.50;;;;;;5046853;28;80412;-42
2022/06/23 16:43:11;;;;;;;;;;;24.20;66.50;;;;;;5046812;28;82692;-42
2022/06/23 16:45:43;;;;;;;;;;;24.10;66.70;;;;;;5046698;28;81033;-42
2022/06/23 16:48:29;;;;;;;;;;;24.00;66.70;;;;;;5046672;28;80035;-41